Time;durP1;ratioP1;P1;durP2;ratioP2;P2;SDS_P1;SDS_P2;PMS_P1;PMS_P2;Temp;Humidity;BMP_temperature;BMP_pressure;BME280_temperature;BME280_humidity;BME280_pressure;Samples;Min_cycle;Max_cycle;Signal;HPM_P1;HPM_P2
2021/10/04 00:02:14;;;;;;;8.17;7.47;;;;;;;10.92;100.00;100611.97;21038013;27;20234;-60
2021/10/04 00:12:16;;;;;;;7.93;7.23;;;;;;;11.05;100.00;100612.94;20981938;27;20233;-65
2021/10/04 00:22:20;;;;;;;7.60;7.00;;;;;;;11.22;100.00;100619.06;20943706;28;20219;-64
2021/10/04 00:32:22;;;;;;;7.43;6.83;;;;;;;11.22;100.00;100600.38;20908684;28;20240;-59
2021/10/04 00:42:26;;;;;;;7.63;6.93;;;;;;;11.20;100.00;100600.47;20890719;28;20260;-59
2021/10/04 00:52:28;;;;;;;6.87;6.27;;;;;;;11.22;100.00;100600.38;20974955;28;20222;-60
2021/10/04 01:02:32;;;;;;;7.37;6.67;;;;;;;11.33;100.00;100596.06;20958362;28;20306;-59
2021/10/04 01:12:35;;;;;;;8.03;6.90;;;;;;;11.61;100.00;100589.81;20958298;28;20233;-58
2021/10/04 01:22:38;;;;;;;7.00;6.37;;;;;;;11.88;100.00;100588.06;20894079;28;20227;-59
2021/10/04 01:42:43;;;;;;;6.37;5.87;;;;;;;12.19;100.00;100580.69;21040194;27;20609;-59
2021/10/04 01:52:45;;;;;;;6.43;5.83;;;;;;;12.29;100.00;100584.47;21034979;28;20257;-58
2021/10/04 02:02:51;;;;;;;7.67;6.23;;;;;;;12.34;100.00;100585.00;21044365;28;20800;-58
2021/10/04 02:12:54;;;;;;;7.93;6.33;;;;;;;12.36;100.00;100576.88;21025244;28;20225;-59
2021/10/04 02:23:05;;;;;;;5.97;5.50;;;;;;;12.42;100.00;100587.19;21044622;28;20225;-59
2021/10/04 02:33:08;;;;;;;6.37;5.77;;;;;;;12.43;100.00;100584.41;21020933;28;20233;-58
2021/10/04 02:43:16;;;;;;;6.43;5.90;;;;;;;12.50;100.00;100584.84;21066390;27;20295;-59
2021/10/04 02:53:19;;;;;;;6.33;5.77;;;;;;;12.57;100.00;100591.47;20987100;28;20240;-59
2021/10/04 03:03:22;;;;;;;6.67;6.07;;;;;;;12.59;100.00;100589.53;20926925;28;20258;-59
2021/10/04 03:13:25;;;;;;;6.30;5.80;;;;;;;12.63;100.00;100591.06;20960419;28;20223;-60
2021/10/04 03:23:28;;;;;;;6.40;5.90;;;;;;;12.63;100.00;100575.84;20912765;28;20337;-63
2021/10/04 03:33:30;;;;;;;6.53;5.93;;;;;;;12.66;100.00;100584.66;20912353;28;20239;-59
2021/10/04 03:43:34;;;;;;;6.07;5.57;;;;;;;12.63;100.00;100581.22;20908501;28;20220;-58
2021/10/04 03:53:36;;;;;;;6.60;5.60;;;;;;;12.59;100.00;100576.16;20898708;28;20244;-58
2021/10/04 04:03:40;;;;;;;6.73;6.13;;;;;;;12.27;100.00;100581.03;20875801;28;20516;-61
2021/10/04 04:13:43;;;;;;;6.60;5.90;;;;;;;11.77;100.00;100584.38;20931514;28;20234;-59
2021/10/04 04:23:46;;;;;;;6.70;6.20;;;;;;;11.36;100.00;100581.63;20962493;28;20695;-61
2021/10/04 04:33:49;;;;;;;7.03;6.43;;;;;;;11.15;100.00;100592.72;20960374;28;20230;-58
2021/10/04 04:43:53;;;;;;;7.40;6.70;;;;;;;11.02;100.00;100597.09;20925278;28;20230;-59
2021/10/04 04:53:56;;;;;;;6.93;6.43;;;;;;;10.94;100.00;100579.84;20881541;28;20241;-58
2021/10/04 05:04:01;;;;;;;7.47;6.30;;;;;;;10.99;100.00;100597.28;20930304;28;20223;-59
2021/10/04 05:14:03;;;;;;;6.67;6.17;;;;;;;11.21;100.00;100595.97;20854595;28;20220;-58
2021/10/04 05:24:07;;;;;;;7.30;6.60;;;;;;;11.36;100.00;100595.00;20887372;28;20231;-58
2021/10/04 05:34:09;;;;;;;7.47;6.73;;;;;;;11.56;100.00;100607.97;20868073;28;20231;-60
2021/10/04 05:44:13;;;;;;;6.23;5.73;;;;;;;11.75;100.00;100608.53;20893940;28;20230;-63
2021/10/04 05:54:15;;;;;;;6.07;5.57;;;;;;;11.87;100.00;100615.75;20794999;28;21646;-60
2021/10/04 06:04:19;;;;;;;7.03;5.07;;;;;;;12.31;100.00;100620.00;20773270;28;20266;-59
2021/10/04 06:14:21;;;;;;;5.47;4.70;;;;;;;13.09;100.00;100628.91;20779850;28;21702;-61
2021/10/04 06:24:25;;;;;;;9.13;7.47;;;;;;;13.48;100.00;100619.94;20821878;28;20228;-60
2021/10/04 06:34:28;;;;;;;18.93;12.60;;;;;;;13.83;100.00;100630.78;20837453;28;20244;-59
2021/10/04 06:44:31;;;;;;;50.80;25.97;;;;;;;14.18;100.00;100635.38;20830799;28;20583;-59
2021/10/04 06:54:34;;;;;;;15.80;11.07;;;;;;;14.58;100.00;100646.72;20796857;28;20303;-59
2021/10/04 07:04:37;;;;;;;14.87;9.57;;;;;;;15.04;100.00;100652.09;20779795;28;20717;-60
2021/10/04 07:14:40;;;;;;;11.03;8.37;;;;;;;15.86;100.00;100659.03;20803563;28;20219;-58
2021/10/04 07:24:44;;;;;;;6.10;5.57;;;;;;;16.96;100.00;100671.44;20814774;28;20298;-62
2021/10/04 07:34:46;;;;;;;4.57;4.20;;;;;;;17.51;100.00;100684.56;20798734;28;20855;-62
2021/10/04 07:44:51;;;;;;;7.87;5.27;;;;;;;18.11;100.00;100685.56;20793489;28;20327;-62
2021/10/04 07:54:54;;;;;;;4.13;3.83;;;;;;;19.06;100.00;100697.50;20820363;28;20416;-65
2021/10/04 08:04:58;;;;;;;4.73;4.33;;;;;;;19.82;100.00;100692.03;20767865;28;20246;-58
2021/10/04 08:15:00;;;;;;;4.93;3.90;;;;;;;20.16;100.00;100684.22;20775616;28;20232;-59
2021/10/04 08:25:05;;;;;;;3.60;3.40;;;;;;;20.63;100.00;100694.91;20792610;28;20227;-61
2021/10/04 08:35:09;;;;;;;3.80;3.50;;;;;;;20.82;100.00;100689.31;20786995;28;20266;-56
2021/10/04 08:45:13;;;;;;;7.13;6.43;;;;;;;20.22;100.00;100699.84;20831287;28;20235;-58
2021/10/04 08:55:18;;;;;;;5.17;4.73;;;;;;;20.23;100.00;100706.97;20820171;28;20736;-60
2021/10/04 09:05:25;;;;;;;6.37;4.53;;;;;;;20.17;100.00;100688.59;20842186;28;20222;-57
2021/10/04 09:15:31;;;;;;;6.27;5.67;;;;;;;20.03;100.00;100681.00;20793565;28;20335;-57
2021/10/04 09:25:41;;;;;;;7.47;5.13;;;;;;;19.88;100.00;100682.47;20798907;28;20215;-55
2021/10/04 09:35:49;;;;;;;5.57;4.80;;;;;;;20.06;100.00;100689.66;20818037;28;20223;-58
2021/10/04 09:46:08;;;;;;;6.10;4.50;;;;;;;20.38;100.00;100688.38;20827895;28;20242;-58
2021/10/04 09:56:25;;;;;;;5.63;5.13;;;;;;;20.66;100.00;100684.59;20819435;28;20277;-57
2021/10/04 10:06:29;;;;;;;5.67;5.20;;;;;;;20.92;100.00;100678.38;20790381;28;20228;-56
2021/10/04 10:16:36;;;;;;;6.13;5.53;;;;;;;21.15;100.00;100685.00;20781416;28;20235;-60
2021/10/04 10:26:41;;;;;;;5.57;5.03;;;;;;;21.25;100.00;100672.25;20761048;28;20223;-57
2021/10/04 10:36:58;;;;;;;5.03;4.63;;;;;;;21.22;100.00;100669.84;20821559;28;20231;-60
2021/10/04 10:47:01;;;;;;;6.53;4.67;;;;;;;21.27;100.00;100662.06;20783053;28;20238;-56
2021/10/04 10:57:04;;;;;;;6.83;6.20;;;;;;;21.39;100.00;100676.22;20829708;28;20239;-63
2021/10/04 11:07:07;;;;;;;14.73;7.27;;;;;;;21.42;100.00;100656.91;20778723;28;20264;-57
2021/10/04 11:17:10;;;;;;;8.30;6.93;;;;;;;21.51;100.00;100658.66;20794047;28;20225;-57
2021/10/04 11:27:14;;;;;;;8.23;6.63;;;;;;;21.73;100.00;100657.28;20848055;28;20758;-62
2021/10/04 11:37:16;;;;;;;6.10;5.60;;;;;;;21.87;100.00;100654.78;20877834;28;20322;-58
2021/10/04 11:47:20;;;;;;;7.60;5.40;;;;;;;22.01;100.00;100661.50;20887164;28;21074;-57
2021/10/04 11:57:31;;;;;;;6.03;5.20;;;;;;;22.06;100.00;100656.44;20791453;28;20250;-57
2021/10/04 12:07:35;;;;;;;7.47;5.87;;;;;;;22.24;100.00;100657.16;20803053;28;20271;-57
2021/10/04 12:17:39;;;;;;;4.97;4.57;;;;;;;22.34;100.00;100648.84;20784401;28;20234;-56
2021/10/04 12:28:12;;;;;;;6.57;5.90;;;;;;;22.34;100.00;100648.84;20817136;28;20222;-58
2021/10/04 12:38:17;;;;;;;5.90;5.23;;;;;;;22.34;100.00;100662.44;20766488;28;20232;-61
2021/10/04 12:48:21;;;;;;;5.43;4.93;;;;;;;22.19;100.00;100664.13;20812504;28;20530;-59
2021/10/04 12:58:24;;;;;;;5.67;4.70;;;;;;;21.96;100.00;100662.97;20771913;28;20282;-60
2021/10/04 13:08:28;;;;;;;10.10;4.97;;;;;;;21.95;100.00;100667.56;20792986;28;20252;-60
2021/10/04 13:18:31;;;;;;;6.03;5.07;;;;;;;21.79;100.00;100679.19;20775368;28;20253;-60
2021/10/04 13:28:37;;;;;;;5.00;4.60;;;;;;;21.69;100.00;100683.91;20785509;28;20228;-59
2021/10/04 13:38:40;;;;;;;5.53;5.03;;;;;;;21.67;100.00;100685.91;20820524;28;20228;-58
2021/10/04 13:48:45;;;;;;;5.30;4.80;;;;;;;21.45;100.00;100683.75;20768736;28;20287;-58
2021/10/04 13:58:47;;;;;;;6.77;5.27;;;;;;;21.32;100.00;100691.47;20816768;28;20234;-59
2021/10/04 14:08:55;;;;;;;5.53;5.03;;;;;;;21.14;100.00;100700.44;20818585;28;20246;-59
2021/10/04 14:18:57;;;;;;;5.00;4.47;;;;;;;21.16;100.00;100709.28;20839441;28;20889;-61
2021/10/04 14:29:02;;;;;;;4.50;4.10;;;;;;;21.11;100.00;100695.34;20821140;28;20231;-59
2021/10/04 14:39:04;;;;;;;6.80;6.10;;;;;;;21.05;100.00;100705.97;20826829;28;20925;-65
2021/10/04 14:49:08;;;;;;;7.83;6.57;;;;;;;20.96;100.00;100705.06;20845874;28;21005;-66
2021/10/04 14:59:11;;;;;;;6.00;5.50;;;;;;;20.73;100.00;100695.69;20799439;28;20313;-60
2021/10/04 15:09:15;;;;;;;7.07;6.37;;;;;;;20.29;100.00;100717.19;20825441;28;20223;-58
2021/10/04 15:19:17;;;;;;;6.47;5.90;;;;;;;19.90;100.00;100729.25;20765815;28;20296;-59
2021/10/04 15:29:21;;;;;;;7.60;6.90;;;;;;;19.37;100.00;100740.59;20846095;28;20235;-63
2021/10/04 15:39:23;;;;;;;9.37;6.27;;;;;;;18.88;100.00;100741.63;20765251;28;20228;-59
2021/10/04 15:49:27;;;;;;;7.00;5.97;;;;;;;18.38;100.00;100727.28;20828982;28;20706;-61
2021/10/04 15:59:30;;;;;;;7.30;6.60;;;;;;;17.98;100.00;100734.44;20782406;28;21009;-59
2021/10/04 16:09:33;;;;;;;6.67;5.97;;;;;;;17.53;100.00;100736.56;20799230;28;20239;-60
2021/10/04 16:19:36;;;;;;;6.70;6.10;;;;;;;17.15;100.00;100760.56;20779335;28;20251;-59
2021/10/04 16:29:39;;;;;;;6.30;5.80;;;;;;;16.76;100.00;100768.34;20799889;28;20236;-59
2021/10/04 16:39:43;;;;;;;6.57;6.07;;;;;;;16.44;100.00;100770.06;20822269;28;20247;-63
2021/10/04 16:49:47;;;;;;;6.90;6.27;;;;;;;16.10;100.00;100764.72;20779169;28;20227;-59
2021/10/04 16:59:49;;;;;;;7.77;7.07;;;;;;;15.77;100.00;100767.41;20905573;28;20509;-59
2021/10/04 17:09:53;;;;;;;7.40;6.70;;;;;;;15.53;100.00;100770.16;20889090;28;20235;-62
2021/10/04 17:19:56;;;;;;;7.90;7.10;;;;;;;15.33;100.00;100776.22;20914119;28;20230;-62
2021/10/04 17:30:00;;;;;;;7.70;7.00;;;;;;;15.13;100.00;100766.97;20814686;28;20236;-61
2021/10/04 17:40:03;;;;;;;9.27;7.33;;;;;;;14.99;100.00;100764.47;20795657;28;20239;-60
2021/10/04 17:50:11;;;;;;;8.10;7.30;;;;;;;14.87;100.00;100771.63;20829694;28;21376;-60
2021/10/04 18:00:16;;;;;;;8.03;7.33;;;;;;;14.76;100.00;100769.75;20810593;28;20239;-59
2021/10/04 18:10:20;;;;;;;8.27;6.67;;;;;;;14.63;100.00;100762.72;20772113;28;20794;-59
2021/10/04 18:20:25;;;;;;;8.40;7.60;;;;;;;14.65;100.00;100788.50;20772174;28;20231;-60
2021/10/04 18:30:32;;;;;;;8.20;7.47;;;;;;;14.49;100.00;100787.91;20788022;28;20232;-61
2021/10/04 18:40:36;;;;;;;8.93;8.13;;;;;;;14.41;100.00;100793.84;20797584;28;20297;-58
2021/10/04 18:50:42;;;;;;;8.47;7.77;;;;;;;14.44;100.00;100795.44;20783513;28;20227;-60
2021/10/04 19:00:46;;;;;;;10.63;8.07;;;;;;;14.55;100.00;100802.72;20814508;28;20393;-63
2021/10/04 19:10:50;;;;;;;8.90;8.20;;;;;;;14.55;100.00;100808.94;20845525;28;20617;-60
2021/10/04 19:20:53;;;;;;;9.53;8.40;;;;;;;14.52;100.00;100803.78;20840559;28;20258;-59
2021/10/04 19:30:59;;;;;;;10.17;9.10;;;;;;;14.45;100.00;100813.28;20833983;28;20231;-59
2021/10/04 19:41:02;;;;;;;10.33;9.43;;;;;;;14.37;100.00;100808.41;20845791;28;20900;-60
2021/10/04 19:51:07;;;;;;;11.57;10.50;;;;;;;14.22;100.00;100806.84;20824496;28;20250;-59
2021/10/04 20:01:10;;;;;;;12.33;11.13;;;;;;;14.09;100.00;100805.16;20826874;28;20612;-59
2021/10/04 20:11:14;;;;;;;12.07;11.00;;;;;;;13.93;100.00;100824.16;20853925;28;20235;-60
2021/10/04 20:21:19;;;;;;;12.13;11.00;;;;;;;13.77;100.00;100816.31;20852270;28;20239;-60
2021/10/04 20:31:23;;;;;;;11.90;10.80;;;;;;;13.60;100.00;100804.06;20825538;28;20234;-64
2021/10/04 20:41:26;;;;;;;12.60;11.50;;;;;;;13.50;100.00;100816.41;20792146;28;20258;-59
2021/10/04 20:51:29;;;;;;;12.17;10.97;;;;;;;13.39;100.00;100816.28;20804093;28;20219;-60
2021/10/04 21:01:32;;;;;;;12.80;11.30;;;;;;;13.27;100.00;100801.88;20824065;28;20225;-61
2021/10/04 21:11:42;;;;;;;11.70;10.60;;;;;;;13.27;100.00;100801.88;20834683;28;20238;-61
2021/10/04 21:31:43;;;;;;;12.57;11.47;;;;;;;13.16;100.00;100793.69;21144987;27;20327;-62
2021/10/04 21:41:45;;;;;;;14.30;11.73;;;;;;;13.06;100.00;100797.91;21158930;27;20711;-61
2021/10/04 21:51:50;;;;;;;10.73;9.80;;;;;;;12.95;100.00;100805.81;21139306;27;20232;-63
2021/10/04 22:01:57;;;;;;;12.13;11.00;;;;;;;12.82;100.00;100794.19;21180561;27;20636;-60
2021/10/04 22:12:01;;;;;;;11.80;10.60;;;;;;;12.74;100.00;100801.88;21190587;27;20225;-61
2021/10/04 22:22:04;;;;;;;13.37;10.53;;;;;;;12.63;100.00;100803.44;21212419;27;20236;-60
2021/10/04 22:32:08;;;;;;;11.00;9.97;;;;;;;12.53;100.00;100806.81;21193475;27;20254;-60
2021/10/04 22:42:11;;;;;;;12.20;11.00;;;;;;;12.46;100.00;100811.69;21119177;27;20229;-63
2021/10/04 22:52:14;;;;;;;11.67;10.57;;;;;;;12.43;100.00;100792.31;21063612;28;20227;-61
2021/10/04 23:02:17;;;;;;;11.73;10.53;;;;;;;12.35;100.00;100808.84;21060289;28;20238;-61
2021/10/04 23:12:20;;;;;;;11.10;10.10;;;;;;;12.18;100.00;100823.31;21065506;28;20237;-60
2021/10/04 23:22:23;;;;;;;11.70;10.50;;;;;;;12.04;100.00;100827.81;21096729;27;20330;-60
2021/10/04 23:32:26;;;;;;;11.50;9.83;;;;;;;11.95;100.00;100823.91;21151055;27;20218;-62
2021/10/04 23:42:29;;;;;;;12.23;10.90;;;;;;;11.90;100.00;100809.94;21105663;27;20240;-60
2021/10/04 23:52:33;;;;;;;11.57;10.37;;;;;;;11.90;100.00;100805.44;21063683;28;20716;-60
